createdAt,value
2019-03-27T00:01:56.491Z,96705.12
2019-03-27T00:04:45.945Z,96703.84
2019-03-27T00:07:35.147Z,96697.44
2019-03-27T00:10:25.122Z,96698.22
2019-03-27T00:13:14.923Z,96691.76
2019-03-27T00:16:04.442Z,96693.94
2019-03-27T00:18:53.293Z,96690.47
2019-03-27T00:21:42.729Z,96689.58
2019-03-27T00:24:32.230Z,96689.24
2019-03-27T00:27:21.363Z,96697.13
2019-03-27T00:30:11.306Z,96694.41
2019-03-27T00:33:00.475Z,96695.02
2019-03-27T00:35:49.527Z,96691.89
2019-03-27T00:38:38.519Z,96694.67
2019-03-27T00:41:28.219Z,96697.83
2019-03-27T00:44:17.651Z,96701.33
2019-03-27T00:47:07.111Z,96694.33
2019-03-27T00:49:56.413Z,96699.72
2019-03-27T00:52:45.295Z,96701.25
2019-03-27T00:55:34.176Z,96699.81
2019-03-27T00:58:23.275Z,96697.48
2019-03-27T01:01:14.405Z,96695.31
2019-03-27T01:04:04.066Z,96696.89
2019-03-27T01:06:53.781Z,96699.80
2019-03-27T01:09:42.519Z,96691.64
2019-03-27T01:12:31.774Z,96696.08
2019-03-27T01:15:21.172Z,96692.80
2019-03-27T01:18:11.120Z,96693.94
2019-03-27T01:21:00.265Z,96686.67
2019-03-27T01:23:50.111Z,96679.97
2019-03-27T01:26:39.616Z,96678.76
2019-03-27T01:29:29.255Z,96679.53
2019-03-27T01:32:18.554Z,96675.25
2019-03-27T01:35:08.499Z,96676.94
2019-03-27T01:37:57.608Z,96676.14
2019-03-27T01:40:46.516Z,96674.84
2019-03-27T01:43:36.274Z,96673.67
2019-03-27T01:46:25.118Z,96675.16
2019-03-27T01:49:14.413Z,96677.83
2019-03-27T01:52:04.056Z,96673.41
2019-03-27T01:54:53.771Z,96681.25
2019-03-27T01:57:43.313Z,96682.42
2019-03-27T02:00:33.147Z,96683.92
2019-03-27T02:03:22.730Z,96681.95
2019-03-27T02:06:12.074Z,96687.36
2019-03-27T02:09:01.521Z,96683.57
2019-03-27T02:11:51.872Z,96691.09
2019-03-27T02:14:40.860Z,96699.83
2019-03-27T02:17:30.511Z,96696.35
2019-03-27T02:20:20.083Z,96696.56
2019-03-27T02:23:09.333Z,96689.34
2019-03-27T02:25:58.719Z,96685.55
2019-03-27T02:28:47.975Z,96685.26
2019-03-27T02:31:37.787Z,96681.09
2019-03-27T02:34:27.547Z,96689.13
2019-03-27T02:37:16.677Z,96689.14
2019-03-27T02:40:07.510Z,96692.53
2019-03-27T02:42:56.764Z,96696.04
2019-03-27T02:45:46.055Z,96691.19
2019-03-27T02:48:35.287Z,96689.62
2019-03-27T02:51:24.441Z,96698.81
2019-03-27T02:54:14.140Z,96697.56
2019-03-27T02:57:03.647Z,96694.91
2019-03-27T02:59:53.231Z,96695.52
2019-03-27T03:02:42.847Z,96699.35
2019-03-27T03:05:32.471Z,96700.72
2019-03-27T03:08:21.651Z,96694.63
2019-03-27T03:11:10.502Z,96700.28
2019-03-27T03:13:59.750Z,96695.64
2019-03-27T03:16:49.526Z,96696.16
2019-03-27T03:19:38.689Z,96692.28
2019-03-27T03:22:27.833Z,96690.22
2019-03-27T03:25:16.931Z,96691.55
2019-03-27T03:28:06.294Z,96685.01
2019-03-27T03:30:56.128Z,96685.89
2019-03-27T03:33:45.266Z,96682.72
2019-03-27T03:36:34.370Z,96692.08
2019-03-27T03:39:23.967Z,96692.53
2019-03-27T03:42:13.770Z,96689.54
2019-03-27T03:45:02.937Z,96690.83
2019-03-27T03:47:52.824Z,96692.08
2019-03-27T03:50:44.283Z,96695.15
2019-03-27T03:53:35.043Z,96691.80
2019-03-27T03:56:25.188Z,96693.45
2019-03-27T03:59:15.307Z,96694.75
2019-03-27T04:02:05.370Z,96695.82
2019-03-27T04:04:56.700Z,96695.82
2019-03-27T04:07:46.260Z,96697.86
2019-03-27T04:10:35.290Z,96695.81
2019-03-27T04:13:24.832Z,96697.28
2019-03-27T04:16:14.400Z,96696.03
2019-03-27T04:19:04.149Z,96704.14
2019-03-27T04:21:53.885Z,96706.20
2019-03-27T04:24:43.242Z,96705.66
2019-03-27T04:27:31.906Z,96705.70
2019-03-27T04:30:21.650Z,96714.67
2019-03-27T04:33:10.490Z,96707.81
2019-03-27T04:36:00.053Z,96705.88
2019-03-27T04:38:49.094Z,96716.11
2019-03-27T04:41:38.135Z,96711.03
2019-03-27T04:44:27.840Z,96719.16
2019-03-27T04:47:31.159Z,96719.27
2019-03-27T04:50:07.859Z,96720.95
2019-03-27T04:52:57.373Z,96715.58
2019-03-27T04:55:46.959Z,96721.14
2019-03-27T04:58:36.297Z,96718.42
2019-03-27T05:01:25.533Z,96723.87
2019-03-27T05:04:14.955Z,96725.39
2019-03-27T05:07:04.317Z,96723.77
2019-03-27T05:09:53.904Z,96725.38
2019-03-27T05:12:43.500Z,96730.16
2019-03-27T05:15:33.175Z,96734.47
2019-03-27T05:18:22.342Z,96736.94
2019-03-27T05:21:11.535Z,96742.81
2019-03-27T05:24:00.230Z,96743.27
2019-03-27T05:26:49.648Z,96744.72
2019-03-27T05:29:39.120Z,96746.56
2019-03-27T05:32:27.883Z,96743.54
2019-03-27T05:35:17.425Z,96744.84
2019-03-27T05:38:07.293Z,96745.45
2019-03-27T05:40:56.821Z,96752.59
2019-03-27T05:43:46.498Z,96757.63
2019-03-27T05:46:35.816Z,96762.62
2019-03-27T05:49:25.673Z,96758.02
2019-03-27T05:52:15.137Z,96756.45
2019-03-27T05:55:04.643Z,96757.73
2019-03-27T05:57:53.709Z,96758.38
2019-03-27T06:00:43.178Z,96759.13
2019-03-27T06:03:32.762Z,96758.47
2019-03-27T06:06:22.348Z,96760.14
2019-03-27T06:09:11.873Z,96765.41
2019-03-27T06:12:01.539Z,96764.69
2019-03-27T06:14:50.589Z,96769.62
2019-03-27T06:17:40.534Z,96771.14
2019-03-27T06:20:29.330Z,96772.20
2019-03-27T06:23:18.994Z,96776.63
2019-03-27T06:26:08.711Z,96774.84
2019-03-27T06:28:58.358Z,96782.41
2019-03-27T06:31:47.815Z,96780.22
2019-03-27T06:34:37.398Z,96774.72
2019-03-27T06:37:26.791Z,96777.97
2019-03-27T06:40:16.248Z,96780.51
2019-03-27T06:43:05.233Z,96780.79
2019-03-27T06:45:54.321Z,96779.49
2019-03-27T06:48:43.583Z,96785.16
2019-03-27T06:51:39.829Z,96787.11
2019-03-27T06:54:23.290Z,96787.36
2019-03-27T06:57:13.021Z,96790.81
2019-03-27T07:00:02.267Z,96793.56
2019-03-27T07:02:52.103Z,96794.12
2019-03-27T07:05:40.974Z,96793.22
2019-03-27T07:08:30.174Z,96797.33
2019-03-27T07:11:19.983Z,96801.30
2019-03-27T07:14:09.385Z,96801.91
2019-03-27T07:16:58.659Z,96794.02
2019-03-27T07:19:48.114Z,96803.20
2019-03-27T07:22:37.653Z,96804.65
2019-03-27T07:25:27.100Z,96810.05
2019-03-27T07:28:16.497Z,96810.27
2019-03-27T07:31:05.493Z,96810.38
2019-03-27T07:33:55.062Z,96814.37
2019-03-27T07:36:44.395Z,96816.84
2019-03-27T07:39:33.902Z,96822.91
2019-03-27T07:42:23.566Z,96823.62
2019-03-27T07:45:12.525Z,96827.55
2019-03-27T07:48:02.292Z,96826.81
2019-03-27T07:50:51.641Z,96819.37
2019-03-27T07:53:41.279Z,96825.19
2019-03-27T07:56:30.814Z,96830.64
2019-03-27T07:59:21.039Z,96834.52
2019-03-27T08:02:10.494Z,96828.61
2019-03-27T08:04:59.423Z,96831.47
2019-03-27T08:07:48.389Z,96825.42
2019-03-27T08:10:38.003Z,96823.59
2019-03-27T08:13:27.331Z,96826.45
2019-03-27T08:16:17.252Z,96824.67
2019-03-27T08:19:08.014Z,96830.63
2019-03-27T08:21:57.527Z,96822.13
2019-03-27T08:24:46.985Z,96821.38
2019-03-27T08:27:36.651Z,96823.81
2019-03-27T08:30:27.224Z,96824.70
2019-03-27T08:33:16.602Z,96825.78
2019-03-27T08:36:06.576Z,96828.61
2019-03-27T08:38:56.495Z,96834.62
2019-03-27T08:41:46.075Z,96843.83
2019-03-27T08:44:34.747Z,96841.24
2019-03-27T08:47:24.119Z,96838.08
2019-03-27T08:50:13.372Z,96838.04
2019-03-27T08:53:02.975Z,96836.47
2019-03-27T08:55:51.932Z,96835.86
2019-03-27T08:58:41.189Z,96843.20
2019-03-27T09:01:30.557Z,96845.34
2019-03-27T09:04:20.275Z,96844.59
2019-03-27T09:07:09.718Z,96845.44
2019-03-27T09:09:59.400Z,96846.98
2019-03-27T09:12:49.176Z,96855.55
2019-03-27T09:15:38.829Z,96852.19
2019-03-27T09:18:27.673Z,96850.75
2019-03-27T09:21:17.245Z,96853.11
2019-03-27T09:24:06.707Z,96854.63
2019-03-27T09:26:56.234Z,96853.90
2019-03-27T09:29:45.889Z,96860.47
2019-03-27T09:32:35.275Z,96864.06
2019-03-27T09:35:24.443Z,96867.33
2019-03-27T09:38:13.701Z,96867.13
2019-03-27T09:41:03.801Z,96861.77
2019-03-27T09:43:52.897Z,96869.03
2019-03-27T09:46:42.305Z,96864.89
2019-03-27T09:49:31.906Z,96864.17
2019-03-27T09:52:21.649Z,96867.70
2019-03-27T09:55:11.252Z,96873.42
2019-03-27T09:58:00.448Z,96877.83
2019-03-27T10:01:00.419Z,96877.85
2019-03-27T10:03:49.887Z,96875.16
2019-03-27T10:06:39.262Z,96875.11
2019-03-27T10:09:28.636Z,96873.32
2019-03-27T10:12:18.436Z,96873.76
2019-03-27T10:15:09.094Z,96876.37
2019-03-27T10:17:58.486Z,96876.37
2019-03-27T10:20:48.015Z,96877.70
2019-03-27T10:23:37.684Z,96872.47
2019-03-27T10:26:26.809Z,96876.83
2019-03-27T10:29:16.533Z,96870.75
2019-03-27T10:32:05.482Z,96875.09
2019-03-27T10:34:54.714Z,96879.92
2019-03-27T10:37:44.208Z,96877.65
2019-03-27T10:40:33.726Z,96878.84
2019-03-27T10:43:22.629Z,96877.55
2019-03-27T10:46:12.075Z,96878.02
2019-03-27T10:49:01.094Z,96874.25
2019-03-27T10:51:50.017Z,96874.95
2019-03-27T10:54:39.061Z,96875.09
2019-03-27T10:57:28.639Z,96878.57
2019-03-27T11:00:17.936Z,96880.25
2019-03-27T11:03:06.659Z,96874.50
2019-03-27T11:05:55.901Z,96879.91
2019-03-27T11:08:44.691Z,96876.89
2019-03-27T11:11:34.678Z,96877.31
2019-03-27T11:14:36.850Z,96878.73
2019-03-27T11:17:15.399Z,96879.72
2019-03-27T11:20:05.061Z,96880.25
2019-03-27T11:22:54.464Z,96881.20
2019-03-27T11:25:43.969Z,96873.01
2019-03-27T11:28:33.643Z,96870.88
2019-03-27T11:31:23.340Z,96871.70
2019-03-27T11:34:12.758Z,96866.08
2019-03-27T11:37:02.357Z,96860.94
2019-03-27T11:39:51.950Z,96861.81
2019-03-27T11:42:41.102Z,96867.47
2019-03-27T11:45:30.469Z,96857.14
2019-03-27T11:48:19.943Z,96868.91
2019-03-27T11:51:08.965Z,96862.84
2019-03-27T11:53:58.551Z,96862.86
2019-03-27T11:56:47.902Z,96865.03
2019-03-27T11:59:36.947Z,96863.45
2019-03-27T12:02:26.208Z,96863.55
2019-03-27T12:05:16.346Z,96863.64
2019-03-27T12:08:06.244Z,96853.77
2019-03-27T12:10:55.578Z,96854.70
2019-03-27T12:13:45.567Z,96854.35
2019-03-27T12:16:35.274Z,96849.62
2019-03-27T12:19:24.550Z,96849.62
2019-03-27T12:22:13.999Z,96849.23
2019-03-27T12:25:03.918Z,96843.17
2019-03-27T12:27:52.894Z,96848.31
2019-03-27T12:30:41.635Z,96849.22
2019-03-27T12:33:31.221Z,96844.87
2019-03-27T12:36:20.678Z,96841.41
2019-03-27T12:39:10.559Z,96834.92
2019-03-27T12:42:00.335Z,96837.87
2019-03-27T12:44:49.778Z,96829.59
2019-03-27T12:47:39.314Z,96831.26
2019-03-27T12:50:28.289Z,96821.12
2019-03-27T12:53:18.489Z,96825.28
2019-03-27T12:56:08.022Z,96822.55
2019-03-27T12:58:57.483Z,96818.47
2019-03-27T13:01:47.088Z,96813.14
2019-03-27T13:04:36.702Z,96814.58
2019-03-27T13:07:25.862Z,96821.56
2019-03-27T13:10:14.706Z,96817.69
2019-03-27T13:13:04.467Z,96815.17
2019-03-27T13:15:53.565Z,96812.83
2019-03-27T13:18:42.992Z,96816.59
2019-03-27T13:21:32.163Z,96820.47
2019-03-27T13:24:21.483Z,96814.30
2019-03-27T13:27:11.007Z,96803.05
2019-03-27T13:30:00.640Z,96801.08
2019-03-27T13:32:50.339Z,96802.81
2019-03-27T13:35:39.702Z,96807.69
2019-03-27T13:38:29.145Z,96800.09
2019-03-27T13:41:18.963Z,96802.16
2019-03-27T13:44:08.610Z,96803.61
2019-03-27T13:46:58.125Z,96806.32
2019-03-27T13:49:47.761Z,96803.86
2019-03-27T13:52:37.402Z,96803.09
2019-03-27T13:55:26.616Z,96812.32
2019-03-27T13:58:15.690Z,96812.41
2019-03-27T14:01:08.644Z,96805.88
2019-03-27T14:03:56.128Z,96803.70
2019-03-27T14:06:45.536Z,96808.57
2019-03-27T14:09:34.885Z,96809.95
2019-03-27T14:12:24.632Z,96806.96
2019-03-27T14:15:14.685Z,96812.61
2019-03-27T14:18:04.693Z,96811.77
2019-03-27T14:20:53.927Z,96806.55
2019-03-27T14:23:43.529Z,96810.49
2019-03-27T14:26:44.409Z,96810.08
2019-03-27T14:29:23.524Z,96808.77
2019-03-27T14:32:12.989Z,96806.61
2019-03-27T14:35:02.494Z,96810.08
2019-03-27T14:37:51.417Z,96812.25
2019-03-27T14:40:41.369Z,96810.08
2019-03-27T14:43:30.678Z,96809.23
2019-03-27T14:46:19.959Z,96803.58
2019-03-27T14:49:09.290Z,96810.11
2019-03-27T14:52:08.095Z,96811.42
2019-03-27T14:54:49.235Z,96808.86
2019-03-27T14:57:39.176Z,96806.25
2019-03-27T15:00:28.644Z,96811.05
2019-03-27T15:03:18.558Z,96810.18
2019-03-27T15:06:07.709Z,96810.20
2019-03-27T15:08:57.114Z,96812.38
2019-03-27T15:11:46.757Z,96803.25
2019-03-27T15:14:36.210Z,96809.78
2019-03-27T15:17:25.465Z,96805.44
2019-03-27T15:20:15.486Z,96804.55
2019-03-27T15:23:04.909Z,96810.64
2019-03-27T15:25:53.978Z,96809.77
2019-03-27T15:28:43.576Z,96807.59
2019-03-27T15:31:33.007Z,96806.31
2019-03-27T15:34:22.424Z,96806.73
2019-03-27T15:37:12.233Z,96804.15
2019-03-27T15:40:01.935Z,96806.30
2019-03-27T15:42:51.689Z,96803.70
2019-03-27T15:45:41.653Z,96803.28
2019-03-27T15:48:30.396Z,96804.58
2019-03-27T15:51:19.711Z,96801.55
2019-03-27T15:54:09.385Z,96801.09
2019-03-27T15:56:58.922Z,96800.69
2019-03-27T15:59:48.316Z,96799.80
2019-03-27T16:02:37.804Z,96801.09
2019-03-27T16:05:27.402Z,96800.68
2019-03-27T16:08:16.688Z,96801.97
2019-03-27T16:11:06.312Z,96798.06
2019-03-27T16:13:55.958Z,96801.97
2019-03-27T16:16:57.878Z,96806.31
2019-03-27T16:19:36.371Z,96808.48
2019-03-27T16:22:25.655Z,96806.31
2019-03-27T16:25:15.161Z,96807.16
2019-03-27T16:28:04.083Z,96805.00
2019-03-27T16:30:55.532Z,96808.92
2019-03-27T16:33:44.227Z,96809.34
2019-03-27T16:36:34.089Z,96809.35
2019-03-27T16:39:23.863Z,96814.09
2019-03-27T16:42:12.941Z,96814.53
2019-03-27T16:45:02.718Z,96808.47
2019-03-27T16:47:51.505Z,96809.34
2019-03-27T16:50:40.988Z,96814.55
2019-03-27T16:53:30.188Z,96813.66
2019-03-27T16:56:19.570Z,96813.68
2019-03-27T16:59:09.292Z,96825.38
2019-03-27T17:01:58.488Z,96829.28
2019-03-27T17:04:48.311Z,96827.11
2019-03-27T17:07:37.558Z,96824.08
2019-03-27T17:10:26.930Z,96829.28
2019-03-27T17:13:16.685Z,96834.89
2019-03-27T17:16:06.530Z,96831.88
2019-03-27T17:18:55.459Z,96835.77
2019-03-27T17:21:45.164Z,96843.98
2019-03-27T17:24:34.922Z,96844.84
2019-03-27T17:27:24.837Z,96846.16
2019-03-27T17:30:14.759Z,96849.60
2019-03-27T17:33:04.542Z,96856.12
2019-03-27T17:35:54.082Z,96852.64
2019-03-27T17:38:43.290Z,96856.12
2019-03-27T17:41:32.782Z,96862.16
2019-03-27T17:44:22.222Z,96872.12
2019-03-27T17:47:13.250Z,96869.08
2019-03-27T17:50:02.547Z,96868.64
2019-03-27T17:52:52.268Z,96876.86
2019-03-27T17:55:41.641Z,96877.71
2019-03-27T17:58:31.351Z,96884.66
2019-03-27T18:01:21.186Z,96886.81
2019-03-27T18:04:11.160Z,96879.02
2019-03-27T18:07:01.269Z,96877.28
2019-03-27T18:09:50.632Z,96879.45
2019-03-27T18:12:40.605Z,96882.05
2019-03-27T18:15:30.283Z,96880.31
2019-03-27T18:18:21.087Z,96885.07
2019-03-27T18:21:11.022Z,96888.98
2019-03-27T18:24:00.798Z,96887.24
2019-03-27T18:26:49.964Z,96888.55
2019-03-27T18:29:39.880Z,96891.55
2019-03-27T18:32:29.782Z,96891.13
2019-03-27T18:35:19.411Z,96898.87
2019-03-27T18:38:09.145Z,96892.84
2019-03-27T18:40:58.551Z,96902.36
2019-03-27T18:43:48.362Z,96911.92
2019-03-27T18:46:38.280Z,96908.45
2019-03-27T18:49:27.677Z,96916.69
2019-03-27T18:52:17.276Z,96916.69
2019-03-27T18:55:07.009Z,96917.09
2019-03-27T18:58:00.336Z,96920.59
2019-03-27T19:00:48.527Z,96931.85
2019-03-27T19:03:38.183Z,96930.08
2019-03-27T19:06:27.976Z,96933.95
2019-03-27T19:09:16.947Z,96930.52
2019-03-27T19:12:06.402Z,96928.30
2019-03-27T19:14:56.323Z,96931.36
2019-03-27T19:17:46.424Z,96933.51
2019-03-27T19:20:35.883Z,96933.94
2019-03-27T19:23:25.812Z,96933.94
2019-03-27T19:26:14.921Z,96935.69
2019-03-27T19:29:04.429Z,96929.61
2019-03-27T19:31:53.978Z,96932.67
2019-03-27T19:34:44.064Z,96938.30
2019-03-27T19:37:33.617Z,96939.09
2019-03-27T19:40:23.294Z,96932.62
2019-03-27T19:43:12.826Z,96936.52
2019-03-27T19:46:02.330Z,96938.25
2019-03-27T19:48:51.387Z,96937.84
2019-03-27T19:51:40.991Z,96935.69
2019-03-27T19:54:31.782Z,96936.97
2019-03-27T19:57:22.302Z,96941.76
2019-03-27T20:00:12.797Z,96941.31
2019-03-27T20:03:02.924Z,96946.05
2019-03-27T20:05:51.952Z,96948.22
2019-03-27T20:08:41.281Z,96949.08
2019-03-27T20:11:30.074Z,96954.70
2019-03-27T20:14:19.699Z,96957.73
2019-03-27T20:17:10.045Z,96953.39
2019-03-27T20:19:59.717Z,96960.31
2019-03-27T20:22:49.481Z,96958.11
2019-03-27T20:25:38.668Z,96955.52
2019-03-27T20:28:28.090Z,96962.42
2019-03-27T20:31:17.969Z,96966.72
2019-03-27T20:34:07.907Z,96962.31
2019-03-27T20:36:56.946Z,96972.25
2019-03-27T20:39:46.838Z,96967.50
2019-03-27T20:42:36.181Z,96967.94
2019-03-27T20:45:25.869Z,96964.04
2019-03-27T20:48:15.056Z,96962.28
2019-03-27T20:51:04.644Z,96963.12
2019-03-27T20:53:54.623Z,96960.53
2019-03-27T20:56:47.287Z,96957.07
2019-03-27T20:59:36.817Z,96962.71
2019-03-27T21:02:26.254Z,96963.10
2019-03-27T21:05:16.169Z,96964.84
2019-03-27T21:08:05.980Z,96961.38
2019-03-27T21:10:55.654Z,96965.27
2019-03-27T21:13:45.484Z,96960.92
2019-03-27T21:16:35.016Z,96960.52
2019-03-27T21:19:24.542Z,96963.94
2019-03-27T21:22:13.613Z,96963.06
2019-03-27T21:25:09.110Z,96958.29
2019-03-27T21:27:54.238Z,96955.23
2019-03-27T21:30:43.607Z,96958.27
2019-03-27T21:33:33.342Z,96962.19
2019-03-27T21:36:22.763Z,96959.16
2019-03-27T21:39:12.410Z,96965.17
2019-03-27T21:42:01.584Z,96962.14
2019-03-27T21:44:50.686Z,96963.00
2019-03-27T21:47:40.226Z,96956.92
2019-03-27T21:50:29.607Z,96966.03
2019-03-27T21:53:19.364Z,96958.27
2019-03-27T21:56:08.719Z,96957.41
2019-03-27T21:59:02.371Z,96960.41
2019-03-27T22:01:50.297Z,96963.45
2019-03-27T22:04:39.947Z,96971.23
2019-03-27T22:07:29.797Z,96967.37
2019-03-27T22:10:19.192Z,96972.56
2019-03-27T22:13:08.718Z,96973.38
2019-03-27T22:15:58.438Z,96969.91
2019-03-27T22:18:48.205Z,96973.73
2019-03-27T22:21:37.564Z,96971.06
2019-03-27T22:24:27.304Z,96971.51
2019-03-27T22:27:16.582Z,96965.89
2019-03-27T22:30:06.861Z,96973.29
2019-03-27T22:32:56.670Z,96967.24
2019-03-27T22:35:46.160Z,96974.62
2019-03-27T22:38:35.780Z,96975.91
2019-03-27T22:41:24.920Z,96973.75
2019-03-27T22:44:14.102Z,96975.95
2019-03-27T22:47:03.616Z,96971.11
2019-03-27T22:49:52.579Z,96971.84
2019-03-27T22:52:42.110Z,96967.95
2019-03-27T22:55:31.555Z,96967.92
2019-03-27T22:58:21.268Z,96970.50
2019-03-27T23:01:10.986Z,96969.61
2019-03-27T23:04:00.848Z,96972.70
2019-03-27T23:06:50.324Z,96977.03
2019-03-27T23:09:39.444Z,96977.03
2019-03-27T23:12:28.754Z,96973.16
2019-03-27T23:15:17.558Z,96974.90
2019-03-27T23:18:07.151Z,96964.50
2019-03-27T23:20:56.417Z,96971.84
2019-03-27T23:23:45.787Z,96970.54
2019-03-27T23:26:34.588Z,96972.70
2019-03-27T23:29:23.731Z,96967.48
2019-03-27T23:32:12.499Z,96966.19
2019-03-27T23:35:02.141Z,96965.33
2019-03-27T23:37:51.928Z,96959.29
2019-03-27T23:40:40.972Z,96964.03
2019-03-27T23:43:30.464Z,96962.69
2019-03-27T23:46:19.744Z,96963.12
2019-03-27T23:49:09.409Z,96966.11
2019-03-27T23:51:58.963Z,96965.25
2019-03-27T23:54:48.772Z,96962.66
2019-03-27T23:57:38.390Z,96962.66
